sensor_id;sensor_type;location;lat;lon;timestamp;temperature;humidity
15426;DHT22;7812;50.072;7.036;2022-11-13T00:00:53;4.30;99.90
15426;DHT22;7812;50.072;7.036;2022-11-13T00:03:19;4.40;99.90
15426;DHT22;7812;50.072;7.036;2022-11-13T00:05:44;4.40;99.90
15426;DHT22;7812;50.072;7.036;2022-11-13T00:08:10;4.30;99.90
15426;DHT22;7812;50.072;7.036;2022-11-13T00:10:36;4.30;99.90
15426;DHT22;7812;50.072;7.036;2022-11-13T00:13:02;4.20;99.90
15426;DHT22;7812;50.072;7.036;2022-11-13T00:15:28;4.20;99.90
15426;DHT22;7812;50.072;7.036;2022-11-13T00:17:54;4.20;99.90
15426;DHT22;7812;50.072;7.036;2022-11-13T00:20:20;4.20;99.90
15426;DHT22;7812;50.072;7.036;2022-11-13T00:22:46;4.20;99.90
15426;DHT22;7812;50.072;7.036;2022-11-13T00:25:12;4.20;99.90
15426;DHT22;7812;50.072;7.036;2022-11-13T00:27:38;4.20;99.90
15426;DHT22;7812;50.072;7.036;2022-11-13T00:30:04;4.20;99.90
15426;DHT22;7812;50.072;7.036;2022-11-13T00:32:31;4.20;99.90
15426;DHT22;7812;50.072;7.036;2022-11-13T00:34:56;4.30;99.90
15426;DHT22;7812;50.072;7.036;2022-11-13T00:37:22;4.30;99.90
15426;DHT22;7812;50.072;7.036;2022-11-13T00:39:48;4.40;99.90
15426;DHT22;7812;50.072;7.036;2022-11-13T00:42:13;4.40;99.90
15426;DHT22;7812;50.072;7.036;2022-11-13T00:44:40;4.40;99.90
15426;DHT22;7812;50.072;7.036;2022-11-13T00:47:06;4.30;99.90
15426;DHT22;7812;50.072;7.036;2022-11-13T00:49:31;4.30;99.90
15426;DHT22;7812;50.072;7.036;2022-11-13T00:51:57;4.30;99.90
15426;DHT22;7812;50.072;7.036;2022-11-13T00:54:24;4.30;99.90
15426;DHT22;7812;50.072;7.036;2022-11-13T00:56:50;4.20;99.90
15426;DHT22;7812;50.072;7.036;2022-11-13T00:59:15;4.20;99.90
15426;DHT22;7812;50.072;7.036;2022-11-13T01:01:41;4.10;99.90
15426;DHT22;7812;50.072;7.036;2022-11-13T01:04:09;4.10;99.90
15426;DHT22;7812;50.072;7.036;2022-11-13T01:06:35;4.10;99.90
15426;DHT22;7812;50.072;7.036;2022-11-13T01:09:05;4.10;99.90
15426;DHT22;7812;50.072;7.036;2022-11-13T01:11:31;4.10;99.90
15426;DHT22;7812;50.072;7.036;2022-11-13T01:13:57;4.10;99.90
15426;DHT22;7812;50.072;7.036;2022-11-13T01:16:25;4.00;99.90
15426;DHT22;7812;50.072;7.036;2022-11-13T01:18:54;3.80;99.90
15426;DHT22;7812;50.072;7.036;2022-11-13T01:21:24;3.70;99.90
15426;DHT22;7812;50.072;7.036;2022-11-13T01:23:52;3.60;99.90
15426;DHT22;7812;50.072;7.036;2022-11-13T01:26:29;3.60;99.90
15426;DHT22;7812;50.072;7.036;2022-11-13T01:28:55;3.70;99.90
15426;DHT22;7812;50.072;7.036;2022-11-13T01:31:24;3.70;99.90
15426;DHT22;7812;50.072;7.036;2022-11-13T01:33:49;3.70;99.90
15426;DHT22;7812;50.072;7.036;2022-11-13T01:36:21;3.70;99.90
15426;DHT22;7812;50.072;7.036;2022-11-13T01:38:47;3.60;99.90
15426;DHT22;7812;50.072;7.036;2022-11-13T01:41:24;3.50;99.90
15426;DHT22;7812;50.072;7.036;2022-11-13T01:43:51;3.40;99.90
15426;DHT22;7812;50.072;7.036;2022-11-13T01:46:34;3.20;99.90
15426;DHT22;7812;50.072;7.036;2022-11-13T01:51:46;3.10;99.90
15426;DHT22;7812;50.072;7.036;2022-11-13T01:54:18;3.10;99.90
15426;DHT22;7812;50.072;7.036;2022-11-13T02:00:09;3.30;99.90
15426;DHT22;7812;50.072;7.036;2022-11-13T02:02:36;3.20;99.90
15426;DHT22;7812;50.072;7.036;2022-11-13T02:05:02;3.20;99.90
15426;DHT22;7812;50.072;7.036;2022-11-13T02:07:33;3.20;99.90
15426;DHT22;7812;50.072;7.036;2022-11-13T02:10:00;3.30;99.90
15426;DHT22;7812;50.072;7.036;2022-11-13T02:12:36;3.20;99.90
15426;DHT22;7812;50.072;7.036;2022-11-13T02:15:05;3.20;99.90
15426;DHT22;7812;50.072;7.036;2022-11-13T02:20:03;3.30;99.90
15426;DHT22;7812;50.072;7.036;2022-11-13T02:25:13;3.20;99.90
15426;DHT22;7812;50.072;7.036;2022-11-13T02:27:47;3.20;99.90
15426;DHT22;7812;50.072;7.036;2022-11-13T02:32:43;3.10;99.90
15426;DHT22;7812;50.072;7.036;2022-11-13T02:35:11;3.10;99.90
15426;DHT22;7812;50.072;7.036;2022-11-13T02:37:39;3.10;99.90
15426;DHT22;7812;50.072;7.036;2022-11-13T02:40:06;3.10;99.90
15426;DHT22;7812;50.072;7.036;2022-11-13T02:42:32;3.10;99.90
15426;DHT22;7812;50.072;7.036;2022-11-13T02:44:57;3.10;99.90
15426;DHT22;7812;50.072;7.036;2022-11-13T02:47:23;3.20;99.90
15426;DHT22;7812;50.072;7.036;2022-11-13T02:49:49;3.20;99.90
15426;DHT22;7812;50.072;7.036;2022-11-13T02:52:14;3.20;99.90
15426;DHT22;7812;50.072;7.036;2022-11-13T02:54:40;3.10;99.90
15426;DHT22;7812;50.072;7.036;2022-11-13T02:57:06;3.10;99.90
15426;DHT22;7812;50.072;7.036;2022-11-13T02:59:31;3.10;99.90
15426;DHT22;7812;50.072;7.036;2022-11-13T03:01:57;3.10;99.90
15426;DHT22;7812;50.072;7.036;2022-11-13T03:04:22;3.20;99.90
15426;DHT22;7812;50.072;7.036;2022-11-13T03:06:48;3.20;99.90
15426;DHT22;7812;50.072;7.036;2022-11-13T03:09:14;3.20;99.90
15426;DHT22;7812;50.072;7.036;2022-11-13T03:11:39;3.00;99.90
15426;DHT22;7812;50.072;7.036;2022-11-13T03:14:07;3.00;99.90
15426;DHT22;7812;50.072;7.036;2022-11-13T03:16:34;3.10;99.90
15426;DHT22;7812;50.072;7.036;2022-11-13T03:19:00;3.10;99.90
15426;DHT22;7812;50.072;7.036;2022-11-13T03:21:26;3.00;99.90
15426;DHT22;7812;50.072;7.036;2022-11-13T03:23:53;3.10;99.90
15426;DHT22;7812;50.072;7.036;2022-11-13T03:26:19;3.10;99.90
15426;DHT22;7812;50.072;7.036;2022-11-13T03:28:44;3.00;99.90
15426;DHT22;7812;50.072;7.036;2022-11-13T03:31:11;3.00;99.90
15426;DHT22;7812;50.072;7.036;2022-11-13T03:33:37;3.00;99.90
15426;DHT22;7812;50.072;7.036;2022-11-13T03:36:02;2.90;99.90
15426;DHT22;7812;50.072;7.036;2022-11-13T03:38:28;2.90;99.90
15426;DHT22;7812;50.072;7.036;2022-11-13T03:40:54;2.80;99.90
15426;DHT22;7812;50.072;7.036;2022-11-13T03:43:20;2.80;99.90
15426;DHT22;7812;50.072;7.036;2022-11-13T03:45:46;2.70;99.90
15426;DHT22;7812;50.072;7.036;2022-11-13T03:48:15;2.70;99.90
15426;DHT22;7812;50.072;7.036;2022-11-13T03:50:43;2.70;99.90
15426;DHT22;7812;50.072;7.036;2022-11-13T03:53:09;2.60;99.90
15426;DHT22;7812;50.072;7.036;2022-11-13T03:55:35;2.60;99.90
15426;DHT22;7812;50.072;7.036;2022-11-13T03:58:01;2.70;99.90
15426;DHT22;7812;50.072;7.036;2022-11-13T04:00:27;2.80;99.90
15426;DHT22;7812;50.072;7.036;2022-11-13T04:02:53;2.70;99.90
15426;DHT22;7812;50.072;7.036;2022-11-13T04:05:19;2.60;99.90
15426;DHT22;7812;50.072;7.036;2022-11-13T04:07:44;2.70;99.90
15426;DHT22;7812;50.072;7.036;2022-11-13T04:10:10;2.60;99.90
15426;DHT22;7812;50.072;7.036;2022-11-13T04:12:35;2.60;99.90
15426;DHT22;7812;50.072;7.036;2022-11-13T04:15:01;2.50;99.90
15426;DHT22;7812;50.072;7.036;2022-11-13T04:17:27;2.50;99.90
15426;DHT22;7812;50.072;7.036;2022-11-13T04:19:52;2.40;99.90
15426;DHT22;7812;50.072;7.036;2022-11-13T04:22:18;2.40;99.90
15426;DHT22;7812;50.072;7.036;2022-11-13T04:24:44;2.40;99.90
15426;DHT22;7812;50.072;7.036;2022-11-13T04:27:09;2.50;99.90
15426;DHT22;7812;50.072;7.036;2022-11-13T04:29:35;2.40;99.90
15426;DHT22;7812;50.072;7.036;2022-11-13T04:32:01;2.40;99.90
15426;DHT22;7812;50.072;7.036;2022-11-13T04:34:26;2.40;99.90
15426;DHT22;7812;50.072;7.036;2022-11-13T04:36:52;2.40;99.90
15426;DHT22;7812;50.072;7.036;2022-11-13T04:39:17;2.40;99.90
15426;DHT22;7812;50.072;7.036;2022-11-13T04:41:43;2.40;99.90
15426;DHT22;7812;50.072;7.036;2022-11-13T04:44:27;2.30;99.90
15426;DHT22;7812;50.072;7.036;2022-11-13T04:46:53;2.30;99.90
15426;DHT22;7812;50.072;7.036;2022-11-13T04:49:19;2.20;99.90
15426;DHT22;7812;50.072;7.036;2022-11-13T04:51:45;2.20;99.90
15426;DHT22;7812;50.072;7.036;2022-11-13T04:54:11;2.20;99.90
15426;DHT22;7812;50.072;7.036;2022-11-13T04:56:38;2.20;99.90
15426;DHT22;7812;50.072;7.036;2022-11-13T04:59:03;2.20;99.90
15426;DHT22;7812;50.072;7.036;2022-11-13T05:01:29;2.20;99.90
15426;DHT22;7812;50.072;7.036;2022-11-13T05:03:55;2.20;99.90
15426;DHT22;7812;50.072;7.036;2022-11-13T05:06:21;2.20;99.90
15426;DHT22;7812;50.072;7.036;2022-11-13T05:08:46;2.10;99.90
15426;DHT22;7812;50.072;7.036;2022-11-13T05:11:12;2.00;99.90
15426;DHT22;7812;50.072;7.036;2022-11-13T05:13:38;2.10;99.90
15426;DHT22;7812;50.072;7.036;2022-11-13T05:16:06;2.10;99.90
15426;DHT22;7812;50.072;7.036;2022-11-13T05:18:33;2.20;99.90
15426;DHT22;7812;50.072;7.036;2022-11-13T05:20:59;2.20;99.90
15426;DHT22;7812;50.072;7.036;2022-11-13T05:23:25;2.20;99.90
15426;DHT22;7812;50.072;7.036;2022-11-13T05:25:51;2.20;99.90
15426;DHT22;7812;50.072;7.036;2022-11-13T05:28:18;2.20;99.90
15426;DHT22;7812;50.072;7.036;2022-11-13T05:30:44;2.20;99.90
15426;DHT22;7812;50.072;7.036;2022-11-13T05:33:10;2.10;99.90
15426;DHT22;7812;50.072;7.036;2022-11-13T05:35:35;2.00;99.90
15426;DHT22;7812;50.072;7.036;2022-11-13T05:38:01;1.70;99.90
15426;DHT22;7812;50.072;7.036;2022-11-13T05:40:28;1.80;99.90
15426;DHT22;7812;50.072;7.036;2022-11-13T05:42:55;1.90;99.90
15426;DHT22;7812;50.072;7.036;2022-11-13T05:45:22;2.00;99.90
15426;DHT22;7812;50.072;7.036;2022-11-13T05:47:48;1.90;99.90
15426;DHT22;7812;50.072;7.036;2022-11-13T05:50:15;1.90;99.90
15426;DHT22;7812;50.072;7.036;2022-11-13T05:52:40;1.90;99.90
15426;DHT22;7812;50.072;7.036;2022-11-13T05:55:07;1.80;99.90
15426;DHT22;7812;50.072;7.036;2022-11-13T05:57:32;1.70;99.90
15426;DHT22;7812;50.072;7.036;2022-11-13T05:59:58;1.70;99.90
15426;DHT22;7812;50.072;7.036;2022-11-13T06:02:24;1.70;99.90
15426;DHT22;7812;50.072;7.036;2022-11-13T06:04:49;1.70;99.90
15426;DHT22;7812;50.072;7.036;2022-11-13T06:07:15;1.80;99.90
15426;DHT22;7812;50.072;7.036;2022-11-13T06:09:41;1.80;99.90
15426;DHT22;7812;50.072;7.036;2022-11-13T06:12:07;1.90;99.90
15426;DHT22;7812;50.072;7.036;2022-11-13T06:14:33;1.80;99.90
15426;DHT22;7812;50.072;7.036;2022-11-13T06:16:59;1.80;99.90
15426;DHT22;7812;50.072;7.036;2022-11-13T06:19:25;1.70;99.90
15426;DHT22;7812;50.072;7.036;2022-11-13T06:21:53;1.60;99.90
15426;DHT22;7812;50.072;7.036;2022-11-13T06:24:19;1.50;99.90
15426;DHT22;7812;50.072;7.036;2022-11-13T06:26:44;1.60;99.90
15426;DHT22;7812;50.072;7.036;2022-11-13T06:29:11;1.60;99.90
15426;DHT22;7812;50.072;7.036;2022-11-13T06:31:37;1.70;99.90
15426;DHT22;7812;50.072;7.036;2022-11-13T06:34:04;1.80;99.90
15426;DHT22;7812;50.072;7.036;2022-11-13T06:36:33;1.80;99.90
15426;DHT22;7812;50.072;7.036;2022-11-13T06:38:59;1.80;99.90
15426;DHT22;7812;50.072;7.036;2022-11-13T06:41:27;1.80;99.90
15426;DHT22;7812;50.072;7.036;2022-11-13T06:43:54;1.60;99.90
15426;DHT22;7812;50.072;7.036;2022-11-13T06:46:22;1.40;99.90
15426;DHT22;7812;50.072;7.036;2022-11-13T06:48:49;1.40;99.90
15426;DHT22;7812;50.072;7.036;2022-11-13T06:51:17;1.30;99.90
15426;DHT22;7812;50.072;7.036;2022-11-13T06:53:44;1.40;99.90
15426;DHT22;7812;50.072;7.036;2022-11-13T06:56:10;1.50;99.90
15426;DHT22;7812;50.072;7.036;2022-11-13T06:58:42;1.60;99.90
15426;DHT22;7812;50.072;7.036;2022-11-13T07:01:17;1.70;99.90
15426;DHT22;7812;50.072;7.036;2022-11-13T07:03:43;1.70;99.90
15426;DHT22;7812;50.072;7.036;2022-11-13T07:06:11;1.60;99.90
15426;DHT22;7812;50.072;7.036;2022-11-13T07:08:39;1.60;99.90
15426;DHT22;7812;50.072;7.036;2022-11-13T07:11:06;1.60;99.90
15426;DHT22;7812;50.072;7.036;2022-11-13T07:13:33;1.60;99.90
15426;DHT22;7812;50.072;7.036;2022-11-13T07:16:05;1.70;99.90
15426;DHT22;7812;50.072;7.036;2022-11-13T07:18:31;1.80;99.90
15426;DHT22;7812;50.072;7.036;2022-11-13T07:20:57;1.70;99.90
15426;DHT22;7812;50.072;7.036;2022-11-13T07:23:23;1.60;99.90
15426;DHT22;7812;50.072;7.036;2022-11-13T07:25:52;1.60;99.90
15426;DHT22;7812;50.072;7.036;2022-11-13T07:28:18;1.50;99.90
15426;DHT22;7812;50.072;7.036;2022-11-13T07:30:44;1.60;99.90
15426;DHT22;7812;50.072;7.036;2022-11-13T07:33:09;1.70;99.90
15426;DHT22;7812;50.072;7.036;2022-11-13T07:35:35;1.80;99.90
15426;DHT22;7812;50.072;7.036;2022-11-13T07:38:01;1.90;99.90
15426;DHT22;7812;50.072;7.036;2022-11-13T07:40:26;1.90;99.90
15426;DHT22;7812;50.072;7.036;2022-11-13T07:42:59;2.00;99.90
15426;DHT22;7812;50.072;7.036;2022-11-13T07:45:26;2.10;99.90
15426;DHT22;7812;50.072;7.036;2022-11-13T07:47:59;2.20;99.90
15426;DHT22;7812;50.072;7.036;2022-11-13T07:50:29;2.10;99.90
15426;DHT22;7812;50.072;7.036;2022-11-13T07:52:57;2.20;99.90
15426;DHT22;7812;50.072;7.036;2022-11-13T07:55:23;2.30;99.90
15426;DHT22;7812;50.072;7.036;2022-11-13T07:57:49;3.20;99.90
15426;DHT22;7812;50.072;7.036;2022-11-13T08:00:15;4.50;99.90
15426;DHT22;7812;50.072;7.036;2022-11-13T08:02:41;6.10;99.90
15426;DHT22;7812;50.072;7.036;2022-11-13T08:05:07;7.90;99.90
15426;DHT22;7812;50.072;7.036;2022-11-13T08:07:33;9.60;99.90
15426;DHT22;7812;50.072;7.036;2022-11-13T08:09:58;11.40;99.90
15426;DHT22;7812;50.072;7.036;2022-11-13T08:12:24;12.70;99.90
15426;DHT22;7812;50.072;7.036;2022-11-13T08:14:49;13.80;99.90
15426;DHT22;7812;50.072;7.036;2022-11-13T08:17:16;14.60;99.90
15426;DHT22;7812;50.072;7.036;2022-11-13T08:19:42;14.70;99.90
15426;DHT22;7812;50.072;7.036;2022-11-13T08:22:08;13.90;99.90
15426;DHT22;7812;50.072;7.036;2022-11-13T08:24:34;13.60;99.90
15426;DHT22;7812;50.072;7.036;2022-11-13T08:26:59;13.50;99.90
15426;DHT22;7812;50.072;7.036;2022-11-13T08:29:25;14.50;99.90
15426;DHT22;7812;50.072;7.036;2022-11-13T08:31:50;15.40;99.90
15426;DHT22;7812;50.072;7.036;2022-11-13T08:34:16;15.60;99.90
15426;DHT22;7812;50.072;7.036;2022-11-13T08:36:42;15.40;99.90
15426;DHT22;7812;50.072;7.036;2022-11-13T08:39:08;15.30;99.90
15426;DHT22;7812;50.072;7.036;2022-11-13T08:41:34;15.40;99.90
15426;DHT22;7812;50.072;7.036;2022-11-13T08:43:59;14.40;99.90
15426;DHT22;7812;50.072;7.036;2022-11-13T08:46:25;14.50;99.90
15426;DHT22;7812;50.072;7.036;2022-11-13T08:48:51;15.70;99.90
15426;DHT22;7812;50.072;7.036;2022-11-13T08:51:17;16.40;99.90
15426;DHT22;7812;50.072;7.036;2022-11-13T08:53:42;17.50;99.90
15426;DHT22;7812;50.072;7.036;2022-11-13T08:56:08;17.60;99.90
15426;DHT22;7812;50.072;7.036;2022-11-13T08:58:34;16.50;99.90
15426;DHT22;7812;50.072;7.036;2022-11-13T09:01:00;15.90;99.90
15426;DHT22;7812;50.072;7.036;2022-11-13T09:03:26;16.10;99.90
15426;DHT22;7812;50.072;7.036;2022-11-13T09:05:52;16.50;99.90
15426;DHT22;7812;50.072;7.036;2022-11-13T09:08:17;16.50;99.90
15426;DHT22;7812;50.072;7.036;2022-11-13T09:10:43;15.60;99.90
15426;DHT22;7812;50.072;7.036;2022-11-13T09:13:09;15.00;99.90
15426;DHT22;7812;50.072;7.036;2022-11-13T09:15:38;15.50;99.90
15426;DHT22;7812;50.072;7.036;2022-11-13T09:18:05;16.20;99.90
15426;DHT22;7812;50.072;7.036;2022-11-13T09:20:32;16.90;99.90
15426;DHT22;7812;50.072;7.036;2022-11-13T09:23:06;17.70;99.90
15426;DHT22;7812;50.072;7.036;2022-11-13T09:25:35;19.10;99.90
15426;DHT22;7812;50.072;7.036;2022-11-13T09:28:02;20.30;99.90
15426;DHT22;7812;50.072;7.036;2022-11-13T09:30:28;20.80;99.90
15426;DHT22;7812;50.072;7.036;2022-11-13T09:32:56;21.70;99.90
15426;DHT22;7812;50.072;7.036;2022-11-13T09:35:26;22.30;99.90
15426;DHT22;7812;50.072;7.036;2022-11-13T09:38:03;22.40;99.90
15426;DHT22;7812;50.072;7.036;2022-11-13T09:40:35;22.40;99.90
15426;DHT22;7812;50.072;7.036;2022-11-13T09:43:05;22.80;99.90
15426;DHT22;7812;50.072;7.036;2022-11-13T09:45:35;23.40;99.90
15426;DHT22;7812;50.072;7.036;2022-11-13T09:50:33;22.30;99.90
15426;DHT22;7812;50.072;7.036;2022-11-13T09:52:59;21.00;99.90
15426;DHT22;7812;50.072;7.036;2022-11-13T09:55:29;20.50;99.90
15426;DHT22;7812;50.072;7.036;2022-11-13T10:00:59;22.20;99.90
15426;DHT22;7812;50.072;7.036;2022-11-13T10:08:52;23.50;99.90
15426;DHT22;7812;50.072;7.036;2022-11-13T10:19:58;23.80;99.90
15426;DHT22;7812;50.072;7.036;2022-11-13T10:25:15;22.60;99.90
15426;DHT22;7812;50.072;7.036;2022-11-13T10:27:53;23.40;99.90
15426;DHT22;7812;50.072;7.036;2022-11-13T10:30:20;23.50;99.90
15426;DHT22;7812;50.072;7.036;2022-11-13T10:32:46;24.00;99.90
15426;DHT22;7812;50.072;7.036;2022-11-13T10:41:12;24.60;99.90
15426;DHT22;7812;50.072;7.036;2022-11-13T10:43:56;24.20;99.90
15426;DHT22;7812;50.072;7.036;2022-11-13T10:46:25;24.10;99.90
15426;DHT22;7812;50.072;7.036;2022-11-13T10:48:51;23.80;99.90
15426;DHT22;7812;50.072;7.036;2022-11-13T10:51:27;25.00;99.90
15426;DHT22;7812;50.072;7.036;2022-11-13T10:53:54;25.90;99.90
15426;DHT22;7812;50.072;7.036;2022-11-13T10:59:10;27.60;99.90
15426;DHT22;7812;50.072;7.036;2022-11-13T11:01:40;26.40;99.90
15426;DHT22;7812;50.072;7.036;2022-11-13T11:04:13;25.90;99.90
15426;DHT22;7812;50.072;7.036;2022-11-13T11:06:44;26.30;99.90
15426;DHT22;7812;50.072;7.036;2022-11-13T11:09:18;26.20;99.90
15426;DHT22;7812;50.072;7.036;2022-11-13T11:14:48;25.50;99.90
15426;DHT22;7812;50.072;7.036;2022-11-13T11:17:20;24.00;99.90
15426;DHT22;7812;50.072;7.036;2022-11-13T11:19:56;23.40;99.90
15426;DHT22;7812;50.072;7.036;2022-11-13T11:22:23;23.70;99.90
15426;DHT22;7812;50.072;7.036;2022-11-13T11:27:46;24.50;99.90
15426;DHT22;7812;50.072;7.036;2022-11-13T11:30:24;24.80;99.90
15426;DHT22;7812;50.072;7.036;2022-11-13T11:33:14;25.00;99.90
15426;DHT22;7812;50.072;7.036;2022-11-13T11:36:45;25.90;99.90
15426;DHT22;7812;50.072;7.036;2022-11-13T11:38:57;26.80;99.90
15426;DHT22;7812;50.072;7.036;2022-11-13T11:41:30;27.50;99.90
15426;DHT22;7812;50.072;7.036;2022-11-13T11:44:19;27.60;99.90
15426;DHT22;7812;50.072;7.036;2022-11-13T11:46:46;26.80;99.90
15426;DHT22;7812;50.072;7.036;2022-11-13T11:49:11;26.70;99.90
15426;DHT22;7812;50.072;7.036;2022-11-13T11:51:53;26.60;99.90
15426;DHT22;7812;50.072;7.036;2022-11-13T11:54:40;26.60;99.90
15426;DHT22;7812;50.072;7.036;2022-11-13T12:00:23;27.90;99.60
15426;DHT22;7812;50.072;7.036;2022-11-13T12:05:27;26.60;99.20
15426;DHT22;7812;50.072;7.036;2022-11-13T12:13:31;27.20;99.30
15426;DHT22;7812;50.072;7.036;2022-11-13T12:19:02;27.10;97.70
15426;DHT22;7812;50.072;7.036;2022-11-13T12:30:12;24.50;99.90
15426;DHT22;7812;50.072;7.036;2022-11-13T12:35:26;26.00;99.50
15426;DHT22;7812;50.072;7.036;2022-11-13T12:40:33;25.90;98.60
15426;DHT22;7812;50.072;7.036;2022-11-13T12:50:39;23.50;98.30
15426;DHT22;7812;50.072;7.036;2022-11-13T12:53:10;23.50;98.70
15426;DHT22;7812;50.072;7.036;2022-11-13T12:55:38;23.20;99.50
15426;DHT22;7812;50.072;7.036;2022-11-13T12:58:25;23.40;99.90
15426;DHT22;7812;50.072;7.036;2022-11-13T13:07:10;23.30;98.30
15426;DHT22;7812;50.072;7.036;2022-11-13T13:09:54;23.50;98.10
15426;DHT22;7812;50.072;7.036;2022-11-13T13:17:34;22.20;98.20
15426;DHT22;7812;50.072;7.036;2022-11-13T13:22:34;21.40;99.90
15426;DHT22;7812;50.072;7.036;2022-11-13T13:25:04;21.60;99.90
15426;DHT22;7812;50.072;7.036;2022-11-13T13:27:38;21.40;99.90
15426;DHT22;7812;50.072;7.036;2022-11-13T13:30:21;21.70;99.90
15426;DHT22;7812;50.072;7.036;2022-11-13T13:41:11;20.50;99.90
15426;DHT22;7812;50.072;7.036;2022-11-13T13:46:30;20.20;98.60
15426;DHT22;7812;50.072;7.036;2022-11-13T13:49:20;18.90;99.90
15426;DHT22;7812;50.072;7.036;2022-11-13T13:51:51;18.40;99.90
15426;DHT22;7812;50.072;7.036;2022-11-13T13:54:21;18.20;99.90
15426;DHT22;7812;50.072;7.036;2022-11-13T13:56:48;18.30;99.90
15426;DHT22;7812;50.072;7.036;2022-11-13T13:59:34;18.00;99.90
15426;DHT22;7812;50.072;7.036;2022-11-13T14:02:02;17.90;99.90
15426;DHT22;7812;50.072;7.036;2022-11-13T14:04:40;17.30;99.90
15426;DHT22;7812;50.072;7.036;2022-11-13T14:07:27;16.60;99.90
15426;DHT22;7812;50.072;7.036;2022-11-13T14:12:41;16.10;99.90
15426;DHT22;7812;50.072;7.036;2022-11-13T14:18:13;15.50;99.90
15426;DHT22;7812;50.072;7.036;2022-11-13T14:23:05;14.80;99.90
15426;DHT22;7812;50.072;7.036;2022-11-13T14:25:32;14.50;99.90
15426;DHT22;7812;50.072;7.036;2022-11-13T14:27:58;14.20;99.90
15426;DHT22;7812;50.072;7.036;2022-11-13T14:30:25;14.00;99.90
15426;DHT22;7812;50.072;7.036;2022-11-13T14:32:52;13.70;99.90
15426;DHT22;7812;50.072;7.036;2022-11-13T14:35:21;13.50;99.90
15426;DHT22;7812;50.072;7.036;2022-11-13T14:37:47;13.20;99.90
15426;DHT22;7812;50.072;7.036;2022-11-13T14:42:56;12.70;99.90
15426;DHT22;7812;50.072;7.036;2022-11-13T14:45:32;12.30;99.90
15426;DHT22;7812;50.072;7.036;2022-11-13T14:47:59;12.20;99.90
15426;DHT22;7812;50.072;7.036;2022-11-13T14:50:33;12.10;99.90
15426;DHT22;7812;50.072;7.036;2022-11-13T14:53:05;12.00;99.90
15426;DHT22;7812;50.072;7.036;2022-11-13T14:55:50;11.80;99.90
15426;DHT22;7812;50.072;7.036;2022-11-13T14:58:51;11.60;99.90
15426;DHT22;7812;50.072;7.036;2022-11-13T15:01:21;11.30;99.90
15426;DHT22;7812;50.072;7.036;2022-11-13T15:03:49;10.90;99.90
15426;DHT22;7812;50.072;7.036;2022-11-13T15:06:20;10.60;99.90
15426;DHT22;7812;50.072;7.036;2022-11-13T15:08:47;10.60;99.90
15426;DHT22;7812;50.072;7.036;2022-11-13T15:11:16;10.60;99.90
15426;DHT22;7812;50.072;7.036;2022-11-13T15:13:42;10.50;99.90
15426;DHT22;7812;50.072;7.036;2022-11-13T15:16:13;10.30;99.90
15426;DHT22;7812;50.072;7.036;2022-11-13T15:21:32;10.10;99.90
15426;DHT22;7812;50.072;7.036;2022-11-13T15:23:58;9.90;99.90
15426;DHT22;7812;50.072;7.036;2022-11-13T15:26:25;9.70;99.90
15426;DHT22;7812;50.072;7.036;2022-11-13T15:28:51;9.30;99.90
15426;DHT22;7812;50.072;7.036;2022-11-13T15:31:25;9.20;99.90
15426;DHT22;7812;50.072;7.036;2022-11-13T15:33:52;9.20;99.90
15426;DHT22;7812;50.072;7.036;2022-11-13T15:36:18;9.10;99.90
15426;DHT22;7812;50.072;7.036;2022-11-13T15:38:44;9.10;99.90
15426;DHT22;7812;50.072;7.036;2022-11-13T15:41:15;9.10;99.90
15426;DHT22;7812;50.072;7.036;2022-11-13T15:43:45;9.00;99.90
15426;DHT22;7812;50.072;7.036;2022-11-13T15:46:16;9.00;99.90
15426;DHT22;7812;50.072;7.036;2022-11-13T15:48:43;9.00;99.90
15426;DHT22;7812;50.072;7.036;2022-11-13T15:53:52;8.70;99.90
15426;DHT22;7812;50.072;7.036;2022-11-13T15:56:18;8.60;99.90
15426;DHT22;7812;50.072;7.036;2022-11-13T15:58:44;8.60;99.90
15426;DHT22;7812;50.072;7.036;2022-11-13T16:01:13;8.50;99.90
15426;DHT22;7812;50.072;7.036;2022-11-13T16:03:39;8.50;99.90
15426;DHT22;7812;50.072;7.036;2022-11-13T16:06:10;8.40;99.90
15426;DHT22;7812;50.072;7.036;2022-11-13T16:08:36;8.20;99.90
15426;DHT22;7812;50.072;7.036;2022-11-13T16:11:02;8.20;99.90
15426;DHT22;7812;50.072;7.036;2022-11-13T16:13:28;8.10;99.90
15426;DHT22;7812;50.072;7.036;2022-11-13T16:15:53;8.10;99.90
15426;DHT22;7812;50.072;7.036;2022-11-13T16:18:23;8.00;99.90
15426;DHT22;7812;50.072;7.036;2022-11-13T16:20:50;8.00;99.90
15426;DHT22;7812;50.072;7.036;2022-11-13T16:23:16;7.80;99.90
15426;DHT22;7812;50.072;7.036;2022-11-13T16:25:43;7.70;99.90
15426;DHT22;7812;50.072;7.036;2022-11-13T16:28:17;7.70;99.90
15426;DHT22;7812;50.072;7.036;2022-11-13T16:30:43;7.60;99.90
15426;DHT22;7812;50.072;7.036;2022-11-13T16:33:09;7.60;99.90
15426;DHT22;7812;50.072;7.036;2022-11-13T16:35:35;7.60;99.90
15426;DHT22;7812;50.072;7.036;2022-11-13T16:38:01;7.50;99.90
15426;DHT22;7812;50.072;7.036;2022-11-13T16:40:29;7.50;99.90
15426;DHT22;7812;50.072;7.036;2022-11-13T16:42:55;7.40;99.90
15426;DHT22;7812;50.072;7.036;2022-11-13T16:45:21;7.40;99.90
15426;DHT22;7812;50.072;7.036;2022-11-13T16:47:47;7.30;99.90
15426;DHT22;7812;50.072;7.036;2022-11-13T16:50:28;7.10;99.90
15426;DHT22;7812;50.072;7.036;2022-11-13T16:52:54;6.90;99.90
15426;DHT22;7812;50.072;7.036;2022-11-13T16:55:21;6.90;99.90
15426;DHT22;7812;50.072;7.036;2022-11-13T16:57:47;6.90;99.90
15426;DHT22;7812;50.072;7.036;2022-11-13T17:00:15;6.90;99.90
15426;DHT22;7812;50.072;7.036;2022-11-13T17:02:43;6.80;99.90
15426;DHT22;7812;50.072;7.036;2022-11-13T17:05:14;6.80;99.90
15426;DHT22;7812;50.072;7.036;2022-11-13T17:07:40;6.80;99.90
15426;DHT22;7812;50.072;7.036;2022-11-13T17:10:13;6.80;99.90
15426;DHT22;7812;50.072;7.036;2022-11-13T17:12:50;6.70;99.90
15426;DHT22;7812;50.072;7.036;2022-11-13T17:15:16;6.60;99.90
15426;DHT22;7812;50.072;7.036;2022-11-13T17:17:42;6.50;99.90
15426;DHT22;7812;50.072;7.036;2022-11-13T17:20:08;6.40;99.90
15426;DHT22;7812;50.072;7.036;2022-11-13T17:22:34;6.30;99.90
15426;DHT22;7812;50.072;7.036;2022-11-13T17:25:00;6.30;99.90
15426;DHT22;7812;50.072;7.036;2022-11-13T17:27:26;6.20;99.90
15426;DHT22;7812;50.072;7.036;2022-11-13T17:29:51;6.30;99.90
15426;DHT22;7812;50.072;7.036;2022-11-13T17:32:17;6.20;99.90
15426;DHT22;7812;50.072;7.036;2022-11-13T17:34:43;6.20;99.90
15426;DHT22;7812;50.072;7.036;2022-11-13T17:37:09;6.20;99.90
15426;DHT22;7812;50.072;7.036;2022-11-13T17:39:34;6.10;99.90
15426;DHT22;7812;50.072;7.036;2022-11-13T17:42:00;6.10;99.90
15426;DHT22;7812;50.072;7.036;2022-11-13T17:44:26;6.00;99.90
15426;DHT22;7812;50.072;7.036;2022-11-13T17:46:51;6.00;99.90
15426;DHT22;7812;50.072;7.036;2022-11-13T17:49:17;5.90;99.90
15426;DHT22;7812;50.072;7.036;2022-11-13T17:51:43;5.70;99.90
15426;DHT22;7812;50.072;7.036;2022-11-13T17:54:09;5.80;99.90
15426;DHT22;7812;50.072;7.036;2022-11-13T17:56:34;5.80;99.90
15426;DHT22;7812;50.072;7.036;2022-11-13T17:59:02;5.80;99.90
15426;DHT22;7812;50.072;7.036;2022-11-13T18:01:28;5.80;99.90
15426;DHT22;7812;50.072;7.036;2022-11-13T18:03:56;5.80;99.90
15426;DHT22;7812;50.072;7.036;2022-11-13T18:06:22;5.70;99.90
15426;DHT22;7812;50.072;7.036;2022-11-13T18:08:48;5.60;99.90
15426;DHT22;7812;50.072;7.036;2022-11-13T18:13:45;5.50;99.90